sensor_id;sensor_type;location;lat;lon;timestamp;P1;durP1;ratioP1;P2;durP2;ratioP2
24843;SDS011;12921;51.392;12.240;2022-10-18T00:00:26;0.10;;;0.10;;
24843;SDS011;12921;51.392;12.240;2022-10-18T00:02:52;0.10;;;0.10;;
24843;SDS011;12921;51.392;12.240;2022-10-18T00:05:18;0.10;;;0.10;;
24843;SDS011;12921;51.392;12.240;2022-10-18T00:07:44;0.10;;;0.10;;
24843;SDS011;12921;51.392;12.240;2022-10-18T00:10:10;0.10;;;0.10;;
24843;SDS011;12921;51.392;12.240;2022-10-18T00:12:37;0.10;;;0.10;;
24843;SDS011;12921;51.392;12.240;2022-10-18T00:15:03;0.20;;;0.20;;
24843;SDS011;12921;51.392;12.240;2022-10-18T00:17:29;0.20;;;0.20;;
24843;SDS011;12921;51.392;12.240;2022-10-18T00:19:55;0.10;;;0.10;;
24843;SDS011;12921;51.392;12.240;2022-10-18T00:22:21;0.10;;;0.10;;
24843;SDS011;12921;51.392;12.240;2022-10-18T00:24:47;0.20;;;0.20;;
24843;SDS011;12921;51.392;12.240;2022-10-18T00:27:13;0.10;;;0.10;;
24843;SDS011;12921;51.392;12.240;2022-10-18T00:29:39;2.60;;;2.47;;
24843;SDS011;12921;51.392;12.240;2022-10-18T00:32:05;0.85;;;0.85;;
24843;SDS011;12921;51.392;12.240;2022-10-18T00:34:31;0.10;;;0.10;;
24843;SDS011;12921;51.392;12.240;2022-10-18T00:36:57;0.10;;;0.10;;
24843;SDS011;12921;51.392;12.240;2022-10-18T00:39:23;0.10;;;0.10;;
24843;SDS011;12921;51.392;12.240;2022-10-18T00:41:50;0.10;;;0.10;;
24843;SDS011;12921;51.392;12.240;2022-10-18T00:46:43;0.10;;;0.10;;
24843;SDS011;12921;51.392;12.240;2022-10-18T00:49:13;0.20;;;0.20;;
24843;SDS011;12921;51.392;12.240;2022-10-18T00:51:41;0.20;;;0.20;;
24843;SDS011;12921;51.392;12.240;2022-10-18T00:54:08;0.10;;;0.10;;
24843;SDS011;12921;51.392;12.240;2022-10-18T00:56:34;0.17;;;0.17;;
24843;SDS011;12921;51.392;12.240;2022-10-18T00:59:00;0.10;;;0.10;;
24843;SDS011;12921;51.392;12.240;2022-10-18T01:01:27;0.10;;;0.10;;
24843;SDS011;12921;51.392;12.240;2022-10-18T01:03:53;0.10;;;0.10;;
24843;SDS011;12921;51.392;12.240;2022-10-18T01:06:19;0.10;;;0.10;;
24843;SDS011;12921;51.392;12.240;2022-10-18T01:08:57;0.10;;;0.10;;
24843;SDS011;12921;51.392;12.240;2022-10-18T01:11:35;0.10;;;0.10;;
24843;SDS011;12921;51.392;12.240;2022-10-18T01:14:08;0.10;;;0.10;;
24843;SDS011;12921;51.392;12.240;2022-10-18T01:21:54;0.10;;;0.10;;
24843;SDS011;12921;51.392;12.240;2022-10-18T01:31:56;1.90;;;0.88;;
24843;SDS011;12921;51.392;12.240;2022-10-18T01:34:23;2.30;;;2.10;;
24843;SDS011;12921;51.392;12.240;2022-10-18T01:36:50;0.13;;;0.13;;
24843;SDS011;12921;51.392;12.240;2022-10-18T01:39:28;0.10;;;0.10;;
24843;SDS011;12921;51.392;12.240;2022-10-18T01:41:55;1.27;;;1.27;;
24843;SDS011;12921;51.392;12.240;2022-10-18T01:44:24;1.63;;;0.85;;
24843;SDS011;12921;51.392;12.240;2022-10-18T01:46:51;0.35;;;0.35;;
24843;SDS011;12921;51.392;12.240;2022-10-18T01:49:17;0.10;;;0.10;;
24843;SDS011;12921;51.392;12.240;2022-10-18T01:51:43;0.30;;;0.30;;
24843;SDS011;12921;51.392;12.240;2022-10-18T01:54:10;0.10;;;0.10;;
24843;SDS011;12921;51.392;12.240;2022-10-18T01:57:21;0.10;;;0.10;;
24843;SDS011;12921;51.392;12.240;2022-10-18T01:59:36;0.77;;;0.77;;
24843;SDS011;12921;51.392;12.240;2022-10-18T02:04:49;0.10;;;0.10;;
24843;SDS011;12921;51.392;12.240;2022-10-18T02:07:21;0.10;;;0.10;;
24843;SDS011;12921;51.392;12.240;2022-10-18T02:10:00;0.10;;;0.10;;
24843;SDS011;12921;51.392;12.240;2022-10-18T02:12:28;1.15;;;1.15;;
24843;SDS011;12921;51.392;12.240;2022-10-18T02:14:55;0.10;;;0.10;;
24843;SDS011;12921;51.392;12.240;2022-10-18T02:17:22;0.10;;;0.10;;
24843;SDS011;12921;51.392;12.240;2022-10-18T02:19:51;0.10;;;0.10;;
24843;SDS011;12921;51.392;12.240;2022-10-18T02:22:18;0.10;;;0.10;;
24843;SDS011;12921;51.392;12.240;2022-10-18T02:24:46;0.10;;;0.10;;
24843;SDS011;12921;51.392;12.240;2022-10-18T02:27:13;0.20;;;0.20;;
24843;SDS011;12921;51.392;12.240;2022-10-18T02:29:39;0.30;;;0.30;;
24843;SDS011;12921;51.392;12.240;2022-10-18T02:35:00;0.30;;;0.30;;
24843;SDS011;12921;51.392;12.240;2022-10-18T02:37:29;1.85;;;0.93;;
24843;SDS011;12921;51.392;12.240;2022-10-18T02:39:57;0.22;;;0.22;;
24843;SDS011;12921;51.392;12.240;2022-10-18T02:42:23;0.40;;;0.40;;
24843;SDS011;12921;51.392;12.240;2022-10-18T02:44:49;0.10;;;0.10;;
24843;SDS011;12921;51.392;12.240;2022-10-18T02:47:15;0.10;;;0.10;;
24843;SDS011;12921;51.392;12.240;2022-10-18T02:49:41;0.10;;;0.10;;
24843;SDS011;12921;51.392;12.240;2022-10-18T02:52:07;0.25;;;0.25;;
24843;SDS011;12921;51.392;12.240;2022-10-18T02:54:33;0.10;;;0.10;;
24843;SDS011;12921;51.392;12.240;2022-10-18T02:56:59;0.10;;;0.10;;
24843;SDS011;12921;51.392;12.240;2022-10-18T02:59:25;0.10;;;0.10;;
24843;SDS011;12921;51.392;12.240;2022-10-18T03:01:51;0.10;;;0.10;;
24843;SDS011;12921;51.392;12.240;2022-10-18T03:04:17;0.10;;;0.10;;
24843;SDS011;12921;51.392;12.240;2022-10-18T03:06:43;0.10;;;0.10;;
24843;SDS011;12921;51.392;12.240;2022-10-18T03:09:09;0.10;;;0.10;;
24843;SDS011;12921;51.392;12.240;2022-10-18T03:11:35;0.10;;;0.10;;
24843;SDS011;12921;51.392;12.240;2022-10-18T03:14:01;0.10;;;0.10;;
24843;SDS011;12921;51.392;12.240;2022-10-18T03:16:27;0.10;;;0.10;;
24843;SDS011;12921;51.392;12.240;2022-10-18T03:18:53;0.10;;;0.10;;
24843;SDS011;12921;51.392;12.240;2022-10-18T03:21:19;0.10;;;0.10;;
24843;SDS011;12921;51.392;12.240;2022-10-18T03:23:45;0.10;;;0.10;;
24843;SDS011;12921;51.392;12.240;2022-10-18T03:26:11;0.10;;;0.10;;
24843;SDS011;12921;51.392;12.240;2022-10-18T03:28:37;0.10;;;0.10;;
24843;SDS011;12921;51.392;12.240;2022-10-18T03:31:03;0.10;;;0.10;;
24843;SDS011;12921;51.392;12.240;2022-10-18T03:33:30;0.10;;;0.10;;
24843;SDS011;12921;51.392;12.240;2022-10-18T03:35:56;0.10;;;0.10;;
24843;SDS011;12921;51.392;12.240;2022-10-18T03:38:22;0.10;;;0.10;;
24843;SDS011;12921;51.392;12.240;2022-10-18T03:40:48;0.10;;;0.10;;
24843;SDS011;12921;51.392;12.240;2022-10-18T03:43:14;0.10;;;0.10;;
24843;SDS011;12921;51.392;12.240;2022-10-18T03:45:40;0.10;;;0.10;;
24843;SDS011;12921;51.392;12.240;2022-10-18T03:48:06;0.10;;;0.10;;
24843;SDS011;12921;51.392;12.240;2022-10-18T03:50:32;0.15;;;0.15;;
24843;SDS011;12921;51.392;12.240;2022-10-18T03:52:58;0.20;;;0.20;;
24843;SDS011;12921;51.392;12.240;2022-10-18T03:55:24;0.10;;;0.10;;
24843;SDS011;12921;51.392;12.240;2022-10-18T03:57:50;0.10;;;0.10;;
24843;SDS011;12921;51.392;12.240;2022-10-18T04:00:16;1.90;;;0.65;;
24843;SDS011;12921;51.392;12.240;2022-10-18T04:02:42;0.20;;;0.20;;
24843;SDS011;12921;51.392;12.240;2022-10-18T04:05:08;1.10;;;0.73;;
24843;SDS011;12921;51.392;12.240;2022-10-18T04:07:34;1.65;;;1.52;;
24843;SDS011;12921;51.392;12.240;2022-10-18T04:10:00;3.72;;;2.50;;
24843;SDS011;12921;51.392;12.240;2022-10-18T04:12:26;3.90;;;2.40;;
24843;SDS011;12921;51.392;12.240;2022-10-18T04:14:52;0.20;;;0.20;;
24843;SDS011;12921;51.392;12.240;2022-10-18T04:17:18;0.10;;;0.10;;
24843;SDS011;12921;51.392;12.240;2022-10-18T04:19:44;0.10;;;0.10;;
24843;SDS011;12921;51.392;12.240;2022-10-18T04:22:10;0.10;;;0.10;;
24843;SDS011;12921;51.392;12.240;2022-10-18T04:24:37;0.10;;;0.10;;
24843;SDS011;12921;51.392;12.240;2022-10-18T04:27:03;0.10;;;0.10;;
24843;SDS011;12921;51.392;12.240;2022-10-18T04:29:29;0.10;;;0.10;;
24843;SDS011;12921;51.392;12.240;2022-10-18T04:31:55;0.10;;;0.10;;
24843;SDS011;12921;51.392;12.240;2022-10-18T04:34:21;0.25;;;0.25;;
24843;SDS011;12921;51.392;12.240;2022-10-18T04:36:47;0.03;;;0.03;;
24843;SDS011;12921;51.392;12.240;2022-10-18T04:39:13;0.10;;;0.10;;
24843;SDS011;12921;51.392;12.240;2022-10-18T04:41:39;0.10;;;0.10;;
24843;SDS011;12921;51.392;12.240;2022-10-18T04:44:05;0.10;;;0.10;;
24843;SDS011;12921;51.392;12.240;2022-10-18T04:46:31;0.30;;;0.30;;
24843;SDS011;12921;51.392;12.240;2022-10-18T04:48:57;5.05;;;2.42;;
24843;SDS011;12921;51.392;12.240;2022-10-18T04:51:25;0.73;;;0.73;;
24843;SDS011;12921;51.392;12.240;2022-10-18T04:53:51;0.50;;;0.50;;
24843;SDS011;12921;51.392;12.240;2022-10-18T04:56:17;0.30;;;0.30;;
24843;SDS011;12921;51.392;12.240;2022-10-18T04:58:44;0.10;;;0.10;;
24843;SDS011;12921;51.392;12.240;2022-10-18T05:01:10;0.10;;;0.10;;
24843;SDS011;12921;51.392;12.240;2022-10-18T05:03:36;0.10;;;0.10;;
24843;SDS011;12921;51.392;12.240;2022-10-18T05:06:03;1.60;;;1.50;;
24843;SDS011;12921;51.392;12.240;2022-10-18T05:08:29;0.20;;;0.20;;
24843;SDS011;12921;51.392;12.240;2022-10-18T05:10:56;1.17;;;1.17;;
24843;SDS011;12921;51.392;12.240;2022-10-18T05:13:22;4.28;;;1.98;;
24843;SDS011;12921;51.392;12.240;2022-10-18T05:15:48;0.85;;;0.85;;
24843;SDS011;12921;51.392;12.240;2022-10-18T05:18:14;0.15;;;0.15;;
24843;SDS011;12921;51.392;12.240;2022-10-18T05:20:40;0.43;;;0.30;;
24843;SDS011;12921;51.392;12.240;2022-10-18T05:23:06;1.08;;;1.08;;
24843;SDS011;12921;51.392;12.240;2022-10-18T05:25:36;0.60;;;0.52;;
24843;SDS011;12921;51.392;12.240;2022-10-18T05:28:03;2.85;;;1.67;;
24843;SDS011;12921;51.392;12.240;2022-10-18T05:30:29;0.68;;;0.68;;
24843;SDS011;12921;51.392;12.240;2022-10-18T05:32:55;0.10;;;0.10;;
24843;SDS011;12921;51.392;12.240;2022-10-18T05:35:21;1.83;;;1.67;;
24843;SDS011;12921;51.392;12.240;2022-10-18T05:37:47;0.10;;;0.10;;
24843;SDS011;12921;51.392;12.240;2022-10-18T05:40:13;0.95;;;0.95;;
24843;SDS011;12921;51.392;12.240;2022-10-18T05:42:39;0.10;;;0.10;;
24843;SDS011;12921;51.392;12.240;2022-10-18T05:45:05;0.32;;;0.32;;
24843;SDS011;12921;51.392;12.240;2022-10-18T05:47:31;0.98;;;0.85;;
24843;SDS011;12921;51.392;12.240;2022-10-18T05:49:57;0.10;;;0.10;;
24843;SDS011;12921;51.392;12.240;2022-10-18T05:52:23;0.38;;;0.38;;
24843;SDS011;12921;51.392;12.240;2022-10-18T05:54:49;0.52;;;0.52;;
24843;SDS011;12921;51.392;12.240;2022-10-18T05:57:15;0.20;;;0.20;;
24843;SDS011;12921;51.392;12.240;2022-10-18T05:59:41;0.10;;;0.10;;
24843;SDS011;12921;51.392;12.240;2022-10-18T06:02:08;2.08;;;1.10;;
24843;SDS011;12921;51.392;12.240;2022-10-18T06:04:34;0.40;;;0.40;;
24843;SDS011;12921;51.392;12.240;2022-10-18T06:07:00;0.38;;;0.38;;
24843;SDS011;12921;51.392;12.240;2022-10-18T06:09:26;18.92;;;2.35;;
24843;SDS011;12921;51.392;12.240;2022-10-18T06:11:54;0.30;;;0.30;;
24843;SDS011;12921;51.392;12.240;2022-10-18T06:14:21;1.65;;;1.45;;
24843;SDS011;12921;51.392;12.240;2022-10-18T06:16:47;3.58;;;2.33;;
24843;SDS011;12921;51.392;12.240;2022-10-18T06:19:14;1.65;;;1.55;;
24843;SDS011;12921;51.392;12.240;2022-10-18T06:21:41;1.75;;;1.65;;
24843;SDS011;12921;51.392;12.240;2022-10-18T06:24:08;2.35;;;2.22;;
24843;SDS011;12921;51.392;12.240;2022-10-18T06:26:34;1.27;;;1.27;;
24843;SDS011;12921;51.392;12.240;2022-10-18T06:29:00;0.40;;;0.40;;
24843;SDS011;12921;51.392;12.240;2022-10-18T06:31:26;1.75;;;1.65;;
24843;SDS011;12921;51.392;12.240;2022-10-18T06:33:52;1.75;;;1.65;;
24843;SDS011;12921;51.392;12.240;2022-10-18T06:36:19;0.32;;;0.32;;
24843;SDS011;12921;51.392;12.240;2022-10-18T06:38:48;1.48;;;1.40;;
24843;SDS011;12921;51.392;12.240;2022-10-18T06:41:14;3.30;;;1.35;;
24843;SDS011;12921;51.392;12.240;2022-10-18T06:43:41;1.00;;;0.68;;
24843;SDS011;12921;51.392;12.240;2022-10-18T06:46:08;0.20;;;0.20;;
24843;SDS011;12921;51.392;12.240;2022-10-18T06:48:34;1.90;;;1.80;;
24843;SDS011;12921;51.392;12.240;2022-10-18T06:51:01;6.07;;;3.35;;
24843;SDS011;12921;51.392;12.240;2022-10-18T06:53:29;3.20;;;1.58;;
24843;SDS011;12921;51.392;12.240;2022-10-18T06:55:59;2.85;;;2.63;;
24843;SDS011;12921;51.392;12.240;2022-10-18T06:58:25;4.88;;;3.95;;
24843;SDS011;12921;51.392;12.240;2022-10-18T07:00:51;6.15;;;3.20;;
24843;SDS011;12921;51.392;12.240;2022-10-18T07:03:17;2.05;;;1.75;;
24843;SDS011;12921;51.392;12.240;2022-10-18T07:05:44;3.10;;;2.13;;
24843;SDS011;12921;51.392;12.240;2022-10-18T07:08:10;6.32;;;4.22;;
24843;SDS011;12921;51.392;12.240;2022-10-18T07:10:36;6.00;;;4.50;;
24843;SDS011;12921;51.392;12.240;2022-10-18T07:13:02;6.15;;;2.65;;
24843;SDS011;12921;51.392;12.240;2022-10-18T07:15:28;6.65;;;4.80;;
24843;SDS011;12921;51.392;12.240;2022-10-18T07:17:54;3.88;;;2.15;;
24843;SDS011;12921;51.392;12.240;2022-10-18T07:20:20;7.88;;;4.55;;
24843;SDS011;12921;51.392;12.240;2022-10-18T07:22:47;5.68;;;3.83;;
24843;SDS011;12921;51.392;12.240;2022-10-18T07:25:13;6.75;;;4.25;;
24843;SDS011;12921;51.392;12.240;2022-10-18T07:27:39;4.18;;;2.42;;
24843;SDS011;12921;51.392;12.240;2022-10-18T07:30:06;13.98;;;5.53;;
24843;SDS011;12921;51.392;12.240;2022-10-18T07:32:32;3.50;;;2.70;;
24843;SDS011;12921;51.392;12.240;2022-10-18T07:34:58;3.17;;;2.33;;
24843;SDS011;12921;51.392;12.240;2022-10-18T07:37:25;3.47;;;3.00;;
24843;SDS011;12921;51.392;12.240;2022-10-18T07:39:51;3.17;;;1.88;;
24843;SDS011;12921;51.392;12.240;2022-10-18T07:42:17;6.20;;;3.63;;
24843;SDS011;12921;51.392;12.240;2022-10-18T07:44:43;2.42;;;1.52;;
24843;SDS011;12921;51.392;12.240;2022-10-18T07:47:09;3.20;;;2.90;;
24843;SDS011;12921;51.392;12.240;2022-10-18T07:49:35;5.32;;;3.80;;
24843;SDS011;12921;51.392;12.240;2022-10-18T07:52:01;3.50;;;2.45;;
24843;SDS011;12921;51.392;12.240;2022-10-18T07:54:27;4.00;;;2.95;;
24843;SDS011;12921;51.392;12.240;2022-10-18T07:56:53;5.03;;;1.15;;
24843;SDS011;12921;51.392;12.240;2022-10-18T07:59:19;3.75;;;2.92;;
24843;SDS011;12921;51.392;12.240;2022-10-18T08:01:45;4.53;;;2.47;;
24843;SDS011;12921;51.392;12.240;2022-10-18T08:04:11;2.40;;;1.90;;
24843;SDS011;12921;51.392;12.240;2022-10-18T08:06:37;3.47;;;2.13;;
24843;SDS011;12921;51.392;12.240;2022-10-18T08:09:03;7.50;;;1.95;;
24843;SDS011;12921;51.392;12.240;2022-10-18T08:11:29;5.60;;;1.80;;
24843;SDS011;12921;51.392;12.240;2022-10-18T08:13:55;0.93;;;0.57;;
24843;SDS011;12921;51.392;12.240;2022-10-18T08:16:22;4.30;;;1.95;;
24843;SDS011;12921;51.392;12.240;2022-10-18T08:18:49;2.17;;;1.08;;
24843;SDS011;12921;51.392;12.240;2022-10-18T08:21:16;0.85;;;0.75;;
24843;SDS011;12921;51.392;12.240;2022-10-18T08:23:42;3.33;;;2.28;;
24843;SDS011;12921;51.392;12.240;2022-10-18T08:26:09;1.98;;;1.70;;
24843;SDS011;12921;51.392;12.240;2022-10-18T08:28:36;2.05;;;0.90;;
24843;SDS011;12921;51.392;12.240;2022-10-18T08:31:03;2.10;;;1.58;;
24843;SDS011;12921;51.392;12.240;2022-10-18T08:33:29;2.83;;;0.98;;
24843;SDS011;12921;51.392;12.240;2022-10-18T08:35:59;1.02;;;0.93;;
24843;SDS011;12921;51.392;12.240;2022-10-18T08:38:25;1.00;;;0.75;;
24843;SDS011;12921;51.392;12.240;2022-10-18T08:40:51;0.35;;;0.35;;
24843;SDS011;12921;51.392;12.240;2022-10-18T08:43:25;0.73;;;0.60;;
24843;SDS011;12921;51.392;12.240;2022-10-18T08:45:53;2.72;;;1.80;;
24843;SDS011;12921;51.392;12.240;2022-10-18T08:48:21;6.40;;;1.92;;
24843;SDS011;12921;51.392;12.240;2022-10-18T08:50:48;0.43;;;0.43;;
24843;SDS011;12921;51.392;12.240;2022-10-18T08:56:01;1.17;;;1.08;;
24843;SDS011;12921;51.392;12.240;2022-10-18T08:58:29;1.40;;;1.10;;
24843;SDS011;12921;51.392;12.240;2022-10-18T09:05:51;0.55;;;0.55;;
24843;SDS011;12921;51.392;12.240;2022-10-18T09:11:40;2.60;;;1.85;;
24843;SDS011;12921;51.392;12.240;2022-10-18T09:19:17;1.13;;;1.02;;
24843;SDS011;12921;51.392;12.240;2022-10-18T09:21:54;1.63;;;0.90;;
24843;SDS011;12921;51.392;12.240;2022-10-18T09:27:28;3.95;;;2.85;;
24843;SDS011;12921;51.392;12.240;2022-10-18T09:29:57;5.32;;;3.25;;
24843;SDS011;12921;51.392;12.240;2022-10-18T09:32:42;4.03;;;1.20;;
24843;SDS011;12921;51.392;12.240;2022-10-18T09:37:59;3.45;;;2.08;;
24843;SDS011;12921;51.392;12.240;2022-10-18T09:40:27;15.02;;;1.40;;
24843;SDS011;12921;51.392;12.240;2022-10-18T09:43:09;2.45;;;1.50;;
24843;SDS011;12921;51.392;12.240;2022-10-18T09:45:40;0.43;;;0.43;;
24843;SDS011;12921;51.392;12.240;2022-10-18T09:51:22;1.20;;;0.93;;
24843;SDS011;12921;51.392;12.240;2022-10-18T09:56:14;3.47;;;1.77;;
24843;SDS011;12921;51.392;12.240;2022-10-18T09:58:46;4.07;;;1.50;;
24843;SDS011;12921;51.392;12.240;2022-10-18T10:01:13;4.70;;;1.77;;
24843;SDS011;12921;51.392;12.240;2022-10-18T10:03:40;5.07;;;1.75;;
24843;SDS011;12921;51.392;12.240;2022-10-18T10:08:42;0.30;;;0.30;;
24843;SDS011;12921;51.392;12.240;2022-10-18T10:13:55;0.10;;;0.10;;
24843;SDS011;12921;51.392;12.240;2022-10-18T10:16:22;1.60;;;1.13;;
24843;SDS011;12921;51.392;12.240;2022-10-18T10:18:51;0.32;;;0.32;;
24843;SDS011;12921;51.392;12.240;2022-10-18T10:21:18;1.35;;;1.05;;
24843;SDS011;12921;51.392;12.240;2022-10-18T10:23:54;0.10;;;0.10;;
24843;SDS011;12921;51.392;12.240;2022-10-18T10:26:32;0.50;;;0.50;;
24843;SDS011;12921;51.392;12.240;2022-10-18T10:28:59;3.60;;;2.92;;
24843;SDS011;12921;51.392;12.240;2022-10-18T10:34:04;1.65;;;0.95;;
24843;SDS011;12921;51.392;12.240;2022-10-18T10:36:31;0.40;;;0.40;;
24843;SDS011;12921;51.392;12.240;2022-10-18T10:39:01;2.33;;;1.85;;
24843;SDS011;12921;51.392;12.240;2022-10-18T10:41:28;2.65;;;2.05;;
24843;SDS011;12921;51.392;12.240;2022-10-18T10:43:54;0.90;;;0.90;;
24843;SDS011;12921;51.392;12.240;2022-10-18T10:46:20;1.15;;;1.00;;
24843;SDS011;12921;51.392;12.240;2022-10-18T10:48:53;1.95;;;1.45;;
24843;SDS011;12921;51.392;12.240;2022-10-18T10:51:27;0.65;;;0.65;;
24843;SDS011;12921;51.392;12.240;2022-10-18T10:54:14;1.30;;;0.60;;
24843;SDS011;12921;51.392;12.240;2022-10-18T10:59:26;0.10;;;0.10;;
24843;SDS011;12921;51.392;12.240;2022-10-18T11:02:10;0.10;;;0.10;;
24843;SDS011;12921;51.392;12.240;2022-10-18T11:04:36;0.30;;;0.30;;
24843;SDS011;12921;51.392;12.240;2022-10-18T11:07:19;0.10;;;0.10;;
24843;SDS011;12921;51.392;12.240;2022-10-18T11:20:34;0.45;;;0.45;;
24843;SDS011;12921;51.392;12.240;2022-10-18T11:23:03;0.30;;;0.30;;
24843;SDS011;12921;51.392;12.240;2022-10-18T11:25:56;0.50;;;0.50;;
24843;SDS011;12921;51.392;12.240;2022-10-18T11:38:14;0.30;;;0.30;;
24843;SDS011;12921;51.392;12.240;2022-10-18T11:40:49;0.43;;;0.32;;
24843;SDS011;12921;51.392;12.240;2022-10-18T11:50:52;0.10;;;0.10;;
24843;SDS011;12921;51.392;12.240;2022-10-18T12:06:11;0.10;;;0.10;;
24843;SDS011;12921;51.392;12.240;2022-10-18T12:08:40;0.10;;;0.10;;
24843;SDS011;12921;51.392;12.240;2022-10-18T12:11:17;0.10;;;0.10;;
24843;SDS011;12921;51.392;12.240;2022-10-18T12:13:47;0.10;;;0.10;;
24843;SDS011;12921;51.392;12.240;2022-10-18T12:16:14;0.10;;;0.10;;
24843;SDS011;12921;51.392;12.240;2022-10-18T12:18:44;0.15;;;0.15;;
24843;SDS011;12921;51.392;12.240;2022-10-18T12:21:12;0.10;;;0.10;;
24843;SDS011;12921;51.392;12.240;2022-10-18T12:23:41;0.10;;;0.10;;
24843;SDS011;12921;51.392;12.240;2022-10-18T12:26:09;0.10;;;0.10;;
24843;SDS011;12921;51.392;12.240;2022-10-18T12:34:05;0.65;;;0.65;;
24843;SDS011;12921;51.392;12.240;2022-10-18T12:36:40;0.20;;;0.20;;
24843;SDS011;12921;51.392;12.240;2022-10-18T12:39:19;0.10;;;0.10;;
24843;SDS011;12921;51.392;12.240;2022-10-18T12:41:46;0.10;;;0.10;;
24843;SDS011;12921;51.392;12.240;2022-10-18T12:44:29;0.10;;;0.10;;
24843;SDS011;12921;51.392;12.240;2022-10-18T12:46:56;0.10;;;0.10;;
24843;SDS011;12921;51.392;12.240;2022-10-18T12:49:26;0.13;;;0.13;;
24843;SDS011;12921;51.392;12.240;2022-10-18T12:51:54;0.30;;;0.30;;
24843;SDS011;12921;51.392;12.240;2022-10-18T12:54:27;0.10;;;0.10;;
24843;SDS011;12921;51.392;12.240;2022-10-18T12:56:54;0.10;;;0.10;;
24843;SDS011;12921;51.392;12.240;2022-10-18T13:09:30;0.73;;;0.73;;
24843;SDS011;12921;51.392;12.240;2022-10-18T13:17:03;0.30;;;0.30;;
24843;SDS011;12921;51.392;12.240;2022-10-18T13:20:14;0.10;;;0.10;;
24843;SDS011;12921;51.392;12.240;2022-10-18T13:22:47;0.10;;;0.10;;
24843;SDS011;12921;51.392;12.240;2022-10-18T13:25:20;0.63;;;0.63;;
24843;SDS011;12921;51.392;12.240;2022-10-18T13:27:48;0.10;;;0.10;;
24843;SDS011;12921;51.392;12.240;2022-10-18T13:30:32;0.10;;;0.10;;
24843;SDS011;12921;51.392;12.240;2022-10-18T13:36:48;0.10;;;0.10;;
24843;SDS011;12921;51.392;12.240;2022-10-18T13:54:07;0.10;;;0.10;;
24843;SDS011;12921;51.392;12.240;2022-10-18T13:59:14;0.35;;;0.35;;
24843;SDS011;12921;51.392;12.240;2022-10-18T14:04:16;0.10;;;0.10;;
24843;SDS011;12921;51.392;12.240;2022-10-18T14:06:47;0.15;;;0.15;;
24843;SDS011;12921;51.392;12.240;2022-10-18T14:11:41;0.30;;;0.30;;
24843;SDS011;12921;51.392;12.240;2022-10-18T14:14:17;0.10;;;0.10;;
24843;SDS011;12921;51.392;12.240;2022-10-18T14:17:02;0.77;;;0.65;;
24843;SDS011;12921;51.392;12.240;2022-10-18T14:22:20;0.10;;;0.10;;
24843;SDS011;12921;51.392;12.240;2022-10-18T14:24:53;0.10;;;0.10;;
24843;SDS011;12921;51.392;12.240;2022-10-18T14:27:24;0.13;;;0.13;;
24843;SDS011;12921;51.392;12.240;2022-10-18T14:30:06;0.10;;;0.10;;
24843;SDS011;12921;51.392;12.240;2022-10-18T14:32:32;0.20;;;0.20;;
24843;SDS011;12921;51.392;12.240;2022-10-18T14:34:58;1.98;;;0.82;;
24843;SDS011;12921;51.392;12.240;2022-10-18T14:39:50;0.90;;;0.90;;
24843;SDS011;12921;51.392;12.240;2022-10-18T14:42:20;2.60;;;1.75;;
24843;SDS011;12921;51.392;12.240;2022-10-18T14:44:47;1.13;;;0.95;;
24843;SDS011;12921;51.392;12.240;2022-10-18T14:47:15;0.60;;;0.60;;
24843;SDS011;12921;51.392;12.240;2022-10-18T14:49:42;2.85;;;2.38;;
24843;SDS011;12921;51.392;12.240;2022-10-18T14:52:09;0.30;;;0.30;;
24843;SDS011;12921;51.392;12.240;2022-10-18T14:54:36;0.55;;;0.55;;
24843;SDS011;12921;51.392;12.240;2022-10-18T14:57:03;1.60;;;1.50;;
24843;SDS011;12921;51.392;12.240;2022-10-18T14:59:33;1.88;;;1.27;;
24843;SDS011;12921;51.392;12.240;2022-10-18T15:02:11;0.13;;;0.13;;
24843;SDS011;12921;51.392;12.240;2022-10-18T15:04:39;0.10;;;0.10;;
24843;SDS011;12921;51.392;12.240;2022-10-18T15:07:12;0.10;;;0.10;;
24843;SDS011;12921;51.392;12.240;2022-10-18T15:09:38;0.10;;;0.10;;
24843;SDS011;12921;51.392;12.240;2022-10-18T15:12:05;0.10;;;0.10;;
24843;SDS011;12921;51.392;12.240;2022-10-18T15:14:31;3.20;;;1.00;;
24843;SDS011;12921;51.392;12.240;2022-10-18T15:16:59;0.20;;;0.20;;
24843;SDS011;12921;51.392;12.240;2022-10-18T15:19:27;0.10;;;0.10;;
24843;SDS011;12921;51.392;12.240;2022-10-18T15:21:55;0.15;;;0.15;;
24843;SDS011;12921;51.392;12.240;2022-10-18T15:26:51;0.10;;;0.10;;
24843;SDS011;12921;51.392;12.240;2022-10-18T15:29:18;4.20;;;2.72;;
24843;SDS011;12921;51.392;12.240;2022-10-18T15:31:45;0.47;;;0.32;;
24843;SDS011;12921;51.392;12.240;2022-10-18T15:34:45;4.38;;;3.15;;
24843;SDS011;12921;51.392;12.240;2022-10-18T15:37:13;5.75;;;3.88;;
24843;SDS011;12921;51.392;12.240;2022-10-18T15:39:40;3.47;;;2.80;;
24843;SDS011;12921;51.392;12.240;2022-10-18T15:42:32;3.63;;;2.03;;
24843;SDS011;12921;51.392;12.240;2022-10-18T15:49:49;0.10;;;0.10;;
24843;SDS011;12921;51.392;12.240;2022-10-18T15:55:01;0.10;;;0.10;;
24843;SDS011;12921;51.392;12.240;2022-10-18T16:02:38;0.10;;;0.10;;
24843;SDS011;12921;51.392;12.240;2022-10-18T16:05:04;0.10;;;0.10;;
24843;SDS011;12921;51.392;12.240;2022-10-18T16:07:30;0.52;;;0.52;;
24843;SDS011;12921;51.392;12.240;2022-10-18T16:09:56;0.40;;;0.40;;
24843;SDS011;12921;51.392;12.240;2022-10-18T16:12:22;0.10;;;0.10;;
24843;SDS011;12921;51.392;12.240;2022-10-18T16:14:48;0.65;;;0.65;;
24843;SDS011;12921;51.392;12.240;2022-10-18T16:17:14;0.10;;;0.10;;
24843;SDS011;12921;51.392;12.240;2022-10-18T16:19:44;0.10;;;0.10;;
24843;SDS011;12921;51.392;12.240;2022-10-18T16:22:10;0.10;;;0.10;;
24843;SDS011;12921;51.392;12.240;2022-10-18T16:24:36;0.10;;;0.10;;
24843;SDS011;12921;51.392;12.240;2022-10-18T16:27:02;0.10;;;0.10;;
24843;SDS011;12921;51.392;12.240;2022-10-18T16:29:29;0.10;;;0.10;;
24843;SDS011;12921;51.392;12.240;2022-10-18T16:31:56;0.47;;;0.47;;
24843;SDS011;12921;51.392;12.240;2022-10-18T16:34:24;1.17;;;1.15;;
24843;SDS011;12921;51.392;12.240;2022-10-18T16:36:53;0.10;;;0.10;;
24843;SDS011;12921;51.392;12.240;2022-10-18T16:39:20;0.30;;;0.30;;
24843;SDS011;12921;51.392;12.240;2022-10-18T16:41:46;0.10;;;0.10;;
24843;SDS011;12921;51.392;12.240;2022-10-18T16:44:13;0.10;;;0.10;;
24843;SDS011;12921;51.392;12.240;2022-10-18T16:46:40;0.10;;;0.10;;
24843;SDS011;12921;51.392;12.240;2022-10-18T16:49:06;0.10;;;0.10;;
24843;SDS011;12921;51.392;12.240;2022-10-18T16:51:35;0.35;;;0.35;;
24843;SDS011;12921;51.392;12.240;2022-10-18T16:54:01;2.08;;;1.88;;
24843;SDS011;12921;51.392;12.240;2022-10-18T16:56:28;0.20;;;0.20;;
24843;SDS011;12921;51.392;12.240;2022-10-18T16:58:55;0.57;;;0.57;;
24843;SDS011;12921;51.392;12.240;2022-10-18T17:01:21;0.30;;;0.30;;
24843;SDS011;12921;51.392;12.240;2022-10-18T17:03:48;0.57;;;0.45;;
24843;SDS011;12921;51.392;12.240;2022-10-18T17:06:17;1.33;;;1.33;;
24843;SDS011;12921;51.392;12.240;2022-10-18T17:08:43;0.10;;;0.10;;
24843;SDS011;12921;51.392;12.240;2022-10-18T17:11:10;0.10;;;0.10;;
24843;SDS011;12921;51.392;12.240;2022-10-18T17:13:36;0.10;;;0.10;;
24843;SDS011;12921;51.392;12.240;2022-10-18T17:16:03;0.10;;;0.10;;
24843;SDS011;12921;51.392;12.240;2022-10-18T17:18:29;0.10;;;0.10;;
24843;SDS011;12921;51.392;12.240;2022-10-18T17:20:56;0.10;;;0.10;;
24843;SDS011;12921;51.392;12.240;2022-10-18T17:23:24;0.10;;;0.10;;
24843;SDS011;12921;51.392;12.240;2022-10-18T17:25:50;0.10;;;0.10;;